sensor_id;sensor_type;location;lat;lon;timestamp;P1;durP1;ratioP1;P2;durP2;ratioP2
11211;SDS011;5663;50.864;12.096;2023-12-20T00:02:06;3.00;;;2.33;;
11211;SDS011;5663;50.864;12.096;2023-12-20T00:04:52;2.97;;;2.37;;
11211;SDS011;5663;50.864;12.096;2023-12-20T00:07:45;2.50;;;2.30;;
11211;SDS011;5663;50.864;12.096;2023-12-20T00:10:16;3.23;;;2.00;;
11211;SDS011;5663;50.864;12.096;2023-12-20T00:12:46;4.20;;;2.40;;
11211;SDS011;5663;50.864;12.096;2023-12-20T00:15:36;5.83;;;2.10;;
11211;SDS011;5663;50.864;12.096;2023-12-20T00:18:18;4.37;;;2.87;;
11211;SDS011;5663;50.864;12.096;2023-12-20T00:20:47;2.37;;;1.87;;
11211;SDS011;5663;50.864;12.096;2023-12-20T00:23:30;2.07;;;1.87;;
11211;SDS011;5663;50.864;12.096;2023-12-20T00:26:02;2.00;;;1.80;;
11211;SDS011;5663;50.864;12.096;2023-12-20T00:28:45;1.60;;;1.50;;
11211;SDS011;5663;50.864;12.096;2023-12-20T00:31:29;1.70;;;1.60;;
11211;SDS011;5663;50.864;12.096;2023-12-20T00:34:20;4.80;;;1.60;;
11211;SDS011;5663;50.864;12.096;2023-12-20T00:37:04;3.43;;;1.60;;
11211;SDS011;5663;50.864;12.096;2023-12-20T00:39:42;3.60;;;1.63;;
11211;SDS011;5663;50.864;12.096;2023-12-20T00:42:30;1.43;;;1.27;;
11211;SDS011;5663;50.864;12.096;2023-12-20T00:45:13;1.90;;;1.60;;
11211;SDS011;5663;50.864;12.096;2023-12-20T00:48:15;2.73;;;1.20;;
11211;SDS011;5663;50.864;12.096;2023-12-20T00:51:06;1.37;;;1.23;;
11211;SDS011;5663;50.864;12.096;2023-12-20T00:53:49;0.90;;;0.90;;
11211;SDS011;5663;50.864;12.096;2023-12-20T00:56:45;0.90;;;0.90;;
11211;SDS011;5663;50.864;12.096;2023-12-20T00:59:16;0.93;;;0.93;;
11211;SDS011;5663;50.864;12.096;2023-12-20T01:01:58;0.87;;;0.57;;
11211;SDS011;5663;50.864;12.096;2023-12-20T01:04:41;1.00;;;0.60;;
11211;SDS011;5663;50.864;12.096;2023-12-20T01:07:10;0.80;;;0.80;;
11211;SDS011;5663;50.864;12.096;2023-12-20T01:09:51;0.67;;;0.67;;
11211;SDS011;5663;50.864;12.096;2023-12-20T01:12:24;0.60;;;0.60;;
11211;SDS011;5663;50.864;12.096;2023-12-20T01:15:09;0.60;;;0.60;;
11211;SDS011;5663;50.864;12.096;2023-12-20T01:17:46;0.60;;;0.60;;
11211;SDS011;5663;50.864;12.096;2023-12-20T01:20:15;1.40;;;0.50;;
11211;SDS011;5663;50.864;12.096;2023-12-20T01:22:54;0.50;;;0.50;;
11211;SDS011;5663;50.864;12.096;2023-12-20T01:25:22;0.83;;;0.53;;
11211;SDS011;5663;50.864;12.096;2023-12-20T01:28:03;0.40;;;0.40;;
11211;SDS011;5663;50.864;12.096;2023-12-20T01:30:53;0.60;;;0.57;;
11211;SDS011;5663;50.864;12.096;2023-12-20T01:33:38;0.53;;;0.53;;
11211;SDS011;5663;50.864;12.096;2023-12-20T01:36:11;0.47;;;0.47;;
11211;SDS011;5663;50.864;12.096;2023-12-20T01:42:08;1.07;;;0.50;;
11211;SDS011;5663;50.864;12.096;2023-12-20T01:44:39;0.53;;;0.50;;
11211;SDS011;5663;50.864;12.096;2023-12-20T01:47:14;0.33;;;0.33;;
11211;SDS011;5663;50.864;12.096;2023-12-20T01:49:43;1.37;;;0.30;;
11211;SDS011;5663;50.864;12.096;2023-12-20T01:52:18;0.40;;;0.40;;
11211;SDS011;5663;50.864;12.096;2023-12-20T01:54:55;0.30;;;0.30;;
11211;SDS011;5663;50.864;12.096;2023-12-20T01:57:46;0.30;;;0.30;;
11211;SDS011;5663;50.864;12.096;2023-12-20T02:00:30;0.40;;;0.40;;
11211;SDS011;5663;50.864;12.096;2023-12-20T02:03:17;0.73;;;0.30;;
11211;SDS011;5663;50.864;12.096;2023-12-20T02:05:46;0.77;;;0.40;;
11211;SDS011;5663;50.864;12.096;2023-12-20T02:08:33;0.20;;;0.20;;
11211;SDS011;5663;50.864;12.096;2023-12-20T02:11:03;0.30;;;0.30;;
11211;SDS011;5663;50.864;12.096;2023-12-20T02:13:59;0.30;;;0.30;;
11211;SDS011;5663;50.864;12.096;2023-12-20T02:16:27;0.47;;;0.43;;
11211;SDS011;5663;50.864;12.096;2023-12-20T02:18:57;0.57;;;0.30;;
11211;SDS011;5663;50.864;12.096;2023-12-20T02:21:31;0.27;;;0.27;;
11211;SDS011;5663;50.864;12.096;2023-12-20T02:24:03;0.33;;;0.33;;
11211;SDS011;5663;50.864;12.096;2023-12-20T02:26:44;0.30;;;0.30;;
11211;SDS011;5663;50.864;12.096;2023-12-20T02:29:39;0.20;;;0.20;;
11211;SDS011;5663;50.864;12.096;2023-12-20T02:32:24;0.23;;;0.23;;
11211;SDS011;5663;50.864;12.096;2023-12-20T02:35:06;0.23;;;0.17;;
11211;SDS011;5663;50.864;12.096;2023-12-20T02:37:47;0.67;;;0.30;;
11211;SDS011;5663;50.864;12.096;2023-12-20T02:40:15;0.77;;;0.30;;
11211;SDS011;5663;50.864;12.096;2023-12-20T02:43:02;0.10;;;0.10;;
11211;SDS011;5663;50.864;12.096;2023-12-20T02:45:47;0.60;;;0.40;;
11211;SDS011;5663;50.864;12.096;2023-12-20T02:48:15;0.23;;;0.23;;
11211;SDS011;5663;50.864;12.096;2023-12-20T02:51:03;0.20;;;0.20;;
11211;SDS011;5663;50.864;12.096;2023-12-20T02:53:52;0.27;;;0.27;;
11211;SDS011;5663;50.864;12.096;2023-12-20T02:56:19;0.30;;;0.20;;
11211;SDS011;5663;50.864;12.096;2023-12-20T02:59:06;0.63;;;0.37;;
11211;SDS011;5663;50.864;12.096;2023-12-20T03:01:50;0.33;;;0.30;;
11211;SDS011;5663;50.864;12.096;2023-12-20T03:04:33;0.37;;;0.20;;
11211;SDS011;5663;50.864;12.096;2023-12-20T03:07:04;0.67;;;0.40;;
11211;SDS011;5663;50.864;12.096;2023-12-20T03:09:45;2.10;;;0.20;;
11211;SDS011;5663;50.864;12.096;2023-12-20T03:12:33;0.83;;;0.40;;
11211;SDS011;5663;50.864;12.096;2023-12-20T03:15:01;0.50;;;0.50;;
11211;SDS011;5663;50.864;12.096;2023-12-20T03:17:43;0.60;;;0.40;;
11211;SDS011;5663;50.864;12.096;2023-12-20T03:20:36;2.63;;;0.37;;
11211;SDS011;5663;50.864;12.096;2023-12-20T03:23:18;0.23;;;0.20;;
11211;SDS011;5663;50.864;12.096;2023-12-20T03:26:01;0.30;;;0.30;;
11211;SDS011;5663;50.864;12.096;2023-12-20T03:28:29;0.23;;;0.23;;
11211;SDS011;5663;50.864;12.096;2023-12-20T03:31:18;0.20;;;0.20;;
11211;SDS011;5663;50.864;12.096;2023-12-20T03:33:46;0.83;;;0.23;;
11211;SDS011;5663;50.864;12.096;2023-12-20T03:36:35;0.10;;;0.10;;
11211;SDS011;5663;50.864;12.096;2023-12-20T03:39:13;0.60;;;0.10;;
11211;SDS011;5663;50.864;12.096;2023-12-20T03:41:42;0.10;;;0.10;;
11211;SDS011;5663;50.864;12.096;2023-12-20T03:44:15;0.30;;;0.30;;
11211;SDS011;5663;50.864;12.096;2023-12-20T03:46:43;0.13;;;0.13;;
11211;SDS011;5663;50.864;12.096;2023-12-20T03:49:24;0.20;;;0.20;;
11211;SDS011;5663;50.864;12.096;2023-12-20T03:52:08;0.30;;;0.30;;
11211;SDS011;5663;50.864;12.096;2023-12-20T03:54:36;0.77;;;0.50;;
11211;SDS011;5663;50.864;12.096;2023-12-20T03:57:05;0.30;;;0.30;;
11211;SDS011;5663;50.864;12.096;2023-12-20T03:59:44;2.77;;;0.30;;
11211;SDS011;5663;50.864;12.096;2023-12-20T04:02:26;0.10;;;0.10;;
11211;SDS011;5663;50.864;12.096;2023-12-20T04:05:08;0.20;;;0.20;;
11211;SDS011;5663;50.864;12.096;2023-12-20T04:07:49;0.20;;;0.20;;
11211;SDS011;5663;50.864;12.096;2023-12-20T04:10:31;0.40;;;0.40;;
11211;SDS011;5663;50.864;12.096;2023-12-20T04:13:00;0.20;;;0.20;;
11211;SDS011;5663;50.864;12.096;2023-12-20T04:15:33;1.23;;;0.27;;
11211;SDS011;5663;50.864;12.096;2023-12-20T04:18:02;0.40;;;0.40;;
11211;SDS011;5663;50.864;12.096;2023-12-20T04:20:30;0.40;;;0.40;;
11211;SDS011;5663;50.864;12.096;2023-12-20T04:23:07;0.47;;;0.40;;
11211;SDS011;5663;50.864;12.096;2023-12-20T04:25:38;0.50;;;0.50;;
11211;SDS011;5663;50.864;12.096;2023-12-20T04:28:40;2.27;;;0.43;;
11211;SDS011;5663;50.864;12.096;2023-12-20T04:31:18;0.57;;;0.47;;
11211;SDS011;5663;50.864;12.096;2023-12-20T04:33:49;0.30;;;0.20;;
11211;SDS011;5663;50.864;12.096;2023-12-20T04:36:33;1.37;;;0.50;;
11211;SDS011;5663;50.864;12.096;2023-12-20T04:39:23;0.77;;;0.50;;
11211;SDS011;5663;50.864;12.096;2023-12-20T04:42:12;2.23;;;0.40;;
11211;SDS011;5663;50.864;12.096;2023-12-20T04:44:51;0.97;;;0.33;;
11211;SDS011;5663;50.864;12.096;2023-12-20T04:47:24;0.20;;;0.20;;
11211;SDS011;5663;50.864;12.096;2023-12-20T04:50:10;0.40;;;0.30;;
11211;SDS011;5663;50.864;12.096;2023-12-20T04:52:51;0.63;;;0.40;;
11211;SDS011;5663;50.864;12.096;2023-12-20T04:55:46;0.40;;;0.40;;
11211;SDS011;5663;50.864;12.096;2023-12-20T04:58:44;0.20;;;0.20;;
11211;SDS011;5663;50.864;12.096;2023-12-20T05:01:20;0.23;;;0.20;;
11211;SDS011;5663;50.864;12.096;2023-12-20T05:03:50;0.30;;;0.30;;
11211;SDS011;5663;50.864;12.096;2023-12-20T05:06:25;1.77;;;0.47;;
11211;SDS011;5663;50.864;12.096;2023-12-20T05:09:09;1.17;;;0.50;;
11211;SDS011;5663;50.864;12.096;2023-12-20T05:11:48;0.23;;;0.23;;
11211;SDS011;5663;50.864;12.096;2023-12-20T05:14:33;0.63;;;0.40;;
11211;SDS011;5663;50.864;12.096;2023-12-20T05:17:09;0.30;;;0.30;;
11211;SDS011;5663;50.864;12.096;2023-12-20T05:19:39;0.93;;;0.47;;
11211;SDS011;5663;50.864;12.096;2023-12-20T05:22:20;0.67;;;0.63;;
11211;SDS011;5663;50.864;12.096;2023-12-20T05:24:57;1.63;;;0.50;;
11211;SDS011;5663;50.864;12.096;2023-12-20T05:27:34;3.17;;;0.70;;
11211;SDS011;5663;50.864;12.096;2023-12-20T05:30:28;1.33;;;0.70;;
11211;SDS011;5663;50.864;12.096;2023-12-20T05:33:07;0.90;;;0.73;;
11211;SDS011;5663;50.864;12.096;2023-12-20T05:35:44;0.50;;;0.50;;
11211;SDS011;5663;50.864;12.096;2023-12-20T05:38:29;0.70;;;0.70;;
11211;SDS011;5663;50.864;12.096;2023-12-20T05:40:56;1.20;;;0.90;;
11211;SDS011;5663;50.864;12.096;2023-12-20T05:43:39;0.63;;;0.63;;
11211;SDS011;5663;50.864;12.096;2023-12-20T05:46:16;0.60;;;0.60;;
11211;SDS011;5663;50.864;12.096;2023-12-20T05:48:47;0.60;;;0.60;;
11211;SDS011;5663;50.864;12.096;2023-12-20T05:51:25;0.67;;;0.60;;
11211;SDS011;5663;50.864;12.096;2023-12-20T05:54:06;0.47;;;0.47;;
11211;SDS011;5663;50.864;12.096;2023-12-20T05:56:44;0.83;;;0.60;;
11211;SDS011;5663;50.864;12.096;2023-12-20T05:59:12;0.87;;;0.70;;
11211;SDS011;5663;50.864;12.096;2023-12-20T06:01:53;0.70;;;0.70;;
11211;SDS011;5663;50.864;12.096;2023-12-20T06:04:50;0.80;;;0.80;;
11211;SDS011;5663;50.864;12.096;2023-12-20T06:07:28;0.77;;;0.77;;
11211;SDS011;5663;50.864;12.096;2023-12-20T06:09:56;1.87;;;1.00;;
11211;SDS011;5663;50.864;12.096;2023-12-20T06:12:26;1.80;;;1.00;;
11211;SDS011;5663;50.864;12.096;2023-12-20T06:14:55;1.00;;;1.00;;
11211;SDS011;5663;50.864;12.096;2023-12-20T06:17:42;0.87;;;0.87;;
11211;SDS011;5663;50.864;12.096;2023-12-20T06:20:39;1.47;;;1.00;;
11211;SDS011;5663;50.864;12.096;2023-12-20T06:23:23;1.37;;;1.10;;
11211;SDS011;5663;50.864;12.096;2023-12-20T06:26:02;1.30;;;1.10;;
11211;SDS011;5663;50.864;12.096;2023-12-20T06:28:46;1.50;;;1.40;;
11211;SDS011;5663;50.864;12.096;2023-12-20T06:31:16;1.47;;;1.37;;
11211;SDS011;5663;50.864;12.096;2023-12-20T06:33:50;1.83;;;1.33;;
11211;SDS011;5663;50.864;12.096;2023-12-20T06:36:41;1.33;;;1.20;;
11211;SDS011;5663;50.864;12.096;2023-12-20T06:39:26;1.63;;;1.20;;
11211;SDS011;5663;50.864;12.096;2023-12-20T06:42:12;4.27;;;1.10;;
11211;SDS011;5663;50.864;12.096;2023-12-20T06:45:11;1.50;;;1.40;;
11211;SDS011;5663;50.864;12.096;2023-12-20T06:47:52;1.60;;;1.50;;
11211;SDS011;5663;50.864;12.096;2023-12-20T06:50:37;1.77;;;1.67;;
11211;SDS011;5663;50.864;12.096;2023-12-20T06:53:07;2.23;;;1.30;;
11211;SDS011;5663;50.864;12.096;2023-12-20T06:55:36;1.93;;;1.70;;
11211;SDS011;5663;50.864;12.096;2023-12-20T06:58:09;2.17;;;1.70;;
11211;SDS011;5663;50.864;12.096;2023-12-20T07:00:43;1.50;;;1.40;;
11211;SDS011;5663;50.864;12.096;2023-12-20T07:03:16;1.67;;;1.50;;
11211;SDS011;5663;50.864;12.096;2023-12-20T07:06:13;2.60;;;1.80;;
11211;SDS011;5663;50.864;12.096;2023-12-20T07:08:56;3.00;;;1.80;;
11211;SDS011;5663;50.864;12.096;2023-12-20T07:11:46;1.50;;;1.40;;
11211;SDS011;5663;50.864;12.096;2023-12-20T07:14:20;2.50;;;1.80;;
11211;SDS011;5663;50.864;12.096;2023-12-20T07:17:13;2.87;;;1.80;;
11211;SDS011;5663;50.864;12.096;2023-12-20T07:20:04;2.03;;;1.83;;
11211;SDS011;5663;50.864;12.096;2023-12-20T07:22:59;2.00;;;1.70;;
11211;SDS011;5663;50.864;12.096;2023-12-20T07:31:17;4.50;;;3.00;;
11211;SDS011;5663;50.864;12.096;2023-12-20T07:34:08;2.73;;;2.10;;
11211;SDS011;5663;50.864;12.096;2023-12-20T07:36:58;3.27;;;2.00;;
11211;SDS011;5663;50.864;12.096;2023-12-20T07:39:52;2.30;;;1.90;;
11211;SDS011;5663;50.864;12.096;2023-12-20T07:42:40;4.43;;;1.90;;
11211;SDS011;5663;50.864;12.096;2023-12-20T07:45:52;4.40;;;2.17;;
11211;SDS011;5663;50.864;12.096;2023-12-20T07:48:39;2.50;;;2.07;;
11211;SDS011;5663;50.864;12.096;2023-12-20T07:51:30;2.37;;;2.07;;
11211;SDS011;5663;50.864;12.096;2023-12-20T07:54:18;2.10;;;1.90;;
11211;SDS011;5663;50.864;12.096;2023-12-20T07:57:15;3.33;;;2.10;;
11211;SDS011;5663;50.864;12.096;2023-12-20T08:00:08;3.80;;;2.07;;
11211;SDS011;5663;50.864;12.096;2023-12-20T08:02:52;5.00;;;1.83;;
11211;SDS011;5663;50.864;12.096;2023-12-20T08:05:34;3.77;;;2.37;;
11211;SDS011;5663;50.864;12.096;2023-12-20T08:11:34;2.30;;;1.60;;
11211;SDS011;5663;50.864;12.096;2023-12-20T08:14:07;4.00;;;1.67;;
11211;SDS011;5663;50.864;12.096;2023-12-20T08:16:49;3.53;;;1.47;;
11211;SDS011;5663;50.864;12.096;2023-12-20T08:19:32;4.73;;;1.50;;
11211;SDS011;5663;50.864;12.096;2023-12-20T08:22:28;5.10;;;1.80;;
11211;SDS011;5663;50.864;12.096;2023-12-20T08:25:23;3.30;;;1.30;;
11211;SDS011;5663;50.864;12.096;2023-12-20T08:28:09;6.07;;;1.70;;
11211;SDS011;5663;50.864;12.096;2023-12-20T08:30:55;3.43;;;1.70;;
11211;SDS011;5663;50.864;12.096;2023-12-20T08:33:30;3.73;;;1.70;;
11211;SDS011;5663;50.864;12.096;2023-12-20T08:36:12;1.83;;;1.60;;
11211;SDS011;5663;50.864;12.096;2023-12-20T08:42:03;2.67;;;1.90;;
11211;SDS011;5663;50.864;12.096;2023-12-20T08:47:51;6.53;;;2.47;;
11211;SDS011;5663;50.864;12.096;2023-12-20T08:50:27;4.20;;;2.50;;
11211;SDS011;5663;50.864;12.096;2023-12-20T08:53:16;3.03;;;2.40;;
11211;SDS011;5663;50.864;12.096;2023-12-20T08:58:53;3.87;;;2.57;;
11211;SDS011;5663;50.864;12.096;2023-12-20T09:01:55;6.43;;;2.43;;
11211;SDS011;5663;50.864;12.096;2023-12-20T09:04:54;2.87;;;2.17;;
11211;SDS011;5663;50.864;12.096;2023-12-20T09:07:49;2.47;;;1.97;;
11211;SDS011;5663;50.864;12.096;2023-12-20T09:10:30;2.87;;;2.00;;
11211;SDS011;5663;50.864;12.096;2023-12-20T09:13:35;2.83;;;1.90;;
11211;SDS011;5663;50.864;12.096;2023-12-20T09:16:20;2.93;;;2.03;;
11211;SDS011;5663;50.864;12.096;2023-12-20T09:19:20;4.07;;;2.20;;
11211;SDS011;5663;50.864;12.096;2023-12-20T09:22:16;2.83;;;2.03;;
11211;SDS011;5663;50.864;12.096;2023-12-20T09:24:53;5.93;;;2.87;;
11211;SDS011;5663;50.864;12.096;2023-12-20T09:27:33;4.20;;;2.50;;
11211;SDS011;5663;50.864;12.096;2023-12-20T09:30:49;5.67;;;2.73;;
11211;SDS011;5663;50.864;12.096;2023-12-20T09:33:45;2.77;;;2.30;;
11211;SDS011;5663;50.864;12.096;2023-12-20T09:36:40;2.60;;;2.30;;
11211;SDS011;5663;50.864;12.096;2023-12-20T09:39:23;6.13;;;2.60;;
11211;SDS011;5663;50.864;12.096;2023-12-20T09:42:07;3.80;;;2.50;;
11211;SDS011;5663;50.864;12.096;2023-12-20T09:45:08;3.10;;;2.30;;
11211;SDS011;5663;50.864;12.096;2023-12-20T09:47:56;4.40;;;2.40;;
11211;SDS011;5663;50.864;12.096;2023-12-20T09:50:47;2.93;;;2.20;;
11211;SDS011;5663;50.864;12.096;2023-12-20T09:53:29;5.97;;;2.10;;
11211;SDS011;5663;50.864;12.096;2023-12-20T09:56:35;3.30;;;2.13;;
11211;SDS011;5663;50.864;12.096;2023-12-20T09:59:41;5.10;;;2.00;;
11211;SDS011;5663;50.864;12.096;2023-12-20T10:05:30;3.53;;;2.37;;
11211;SDS011;5663;50.864;12.096;2023-12-20T10:11:37;4.57;;;2.20;;
11211;SDS011;5663;50.864;12.096;2023-12-20T10:14:32;5.03;;;2.30;;
11211;SDS011;5663;50.864;12.096;2023-12-20T10:17:14;2.83;;;2.07;;
11211;SDS011;5663;50.864;12.096;2023-12-20T10:20:01;4.23;;;2.40;;
11211;SDS011;5663;50.864;12.096;2023-12-20T10:23:07;4.40;;;2.10;;
11211;SDS011;5663;50.864;12.096;2023-12-20T10:26:03;4.53;;;2.30;;
11211;SDS011;5663;50.864;12.096;2023-12-20T10:38:45;7.17;;;2.40;;
11211;SDS011;5663;50.864;12.096;2023-12-20T10:41:37;6.93;;;2.27;;
11211;SDS011;5663;50.864;12.096;2023-12-20T10:50:26;6.10;;;2.23;;
11211;SDS011;5663;50.864;12.096;2023-12-20T10:53:27;3.20;;;1.70;;
11211;SDS011;5663;50.864;12.096;2023-12-20T10:56:20;6.00;;;2.43;;
11211;SDS011;5663;50.864;12.096;2023-12-20T10:59:14;4.60;;;2.27;;
11211;SDS011;5663;50.864;12.096;2023-12-20T11:01:55;4.33;;;2.30;;
11211;SDS011;5663;50.864;12.096;2023-12-20T11:50:40;5.93;;;1.87;;
11211;SDS011;5663;50.864;12.096;2023-12-20T11:54:01;5.90;;;2.00;;
11211;SDS011;5663;50.864;12.096;2023-12-20T11:57:09;6.30;;;1.87;;
11211;SDS011;5663;50.864;12.096;2023-12-20T12:06:22;4.53;;;1.47;;
11211;SDS011;5663;50.864;12.096;2023-12-20T12:09:13;3.73;;;1.77;;
11211;SDS011;5663;50.864;12.096;2023-12-20T12:33:51;7.77;;;1.70;;
11211;SDS011;5663;50.864;12.096;2023-12-20T12:39:02;1.87;;;1.43;;
11211;SDS011;5663;50.864;12.096;2023-12-20T12:42:06;3.77;;;1.70;;
11211;SDS011;5663;50.864;12.096;2023-12-20T12:53:55;3.87;;;1.60;;
11211;SDS011;5663;50.864;12.096;2023-12-20T13:40:31;4.37;;;1.80;;
11211;SDS011;5663;50.864;12.096;2023-12-20T13:51:50;3.83;;;1.73;;
11211;SDS011;5663;50.864;12.096;2023-12-20T13:54:24;2.53;;;1.63;;
11211;SDS011;5663;50.864;12.096;2023-12-20T13:57:20;4.13;;;1.93;;
11211;SDS011;5663;50.864;12.096;2023-12-20T14:00:16;3.60;;;1.80;;
11211;SDS011;5663;50.864;12.096;2023-12-20T14:02:58;3.73;;;1.50;;
11211;SDS011;5663;50.864;12.096;2023-12-20T14:05:55;3.47;;;1.87;;
11211;SDS011;5663;50.864;12.096;2023-12-20T14:08:55;3.53;;;1.93;;
11211;SDS011;5663;50.864;12.096;2023-12-20T14:11:37;3.20;;;1.90;;
11211;SDS011;5663;50.864;12.096;2023-12-20T14:14:47;6.43;;;2.40;;
11211;SDS011;5663;50.864;12.096;2023-12-20T14:17:41;2.13;;;1.60;;
11211;SDS011;5663;50.864;12.096;2023-12-20T14:20:28;3.43;;;1.60;;
11211;SDS011;5663;50.864;12.096;2023-12-20T14:23:04;3.10;;;2.10;;
11211;SDS011;5663;50.864;12.096;2023-12-20T14:25:48;1.83;;;1.40;;
11211;SDS011;5663;50.864;12.096;2023-12-20T14:28:37;2.77;;;2.00;;
11211;SDS011;5663;50.864;12.096;2023-12-20T14:36:33;3.10;;;1.57;;
11211;SDS011;5663;50.864;12.096;2023-12-20T14:39:33;3.47;;;1.73;;
11211;SDS011;5663;50.864;12.096;2023-12-20T14:42:05;3.40;;;1.80;;
11211;SDS011;5663;50.864;12.096;2023-12-20T14:45:02;6.60;;;1.90;;
11211;SDS011;5663;50.864;12.096;2023-12-20T14:47:55;2.27;;;1.50;;
11211;SDS011;5663;50.864;12.096;2023-12-20T14:50:42;3.97;;;1.67;;
11211;SDS011;5663;50.864;12.096;2023-12-20T14:53:33;4.47;;;1.57;;
11211;SDS011;5663;50.864;12.096;2023-12-20T15:00:15;4.60;;;1.93;;
11211;SDS011;5663;50.864;12.096;2023-12-20T15:02:51;4.63;;;1.87;;
11211;SDS011;5663;50.864;12.096;2023-12-20T15:05:57;5.53;;;1.67;;
11211;SDS011;5663;50.864;12.096;2023-12-20T15:08:43;4.73;;;1.60;;
11211;SDS011;5663;50.864;12.096;2023-12-20T15:11:24;4.63;;;1.70;;
11211;SDS011;5663;50.864;12.096;2023-12-20T15:14:12;3.40;;;1.73;;
11211;SDS011;5663;50.864;12.096;2023-12-20T15:17:10;2.63;;;1.60;;
11211;SDS011;5663;50.864;12.096;2023-12-20T15:19:39;3.37;;;2.03;;
11211;SDS011;5663;50.864;12.096;2023-12-20T15:22:38;3.07;;;1.80;;
11211;SDS011;5663;50.864;12.096;2023-12-20T15:25:27;3.97;;;1.67;;
11211;SDS011;5663;50.864;12.096;2023-12-20T15:27:57;3.23;;;2.03;;
11211;SDS011;5663;50.864;12.096;2023-12-20T15:30:28;7.80;;;2.40;;
11211;SDS011;5663;50.864;12.096;2023-12-20T15:32:58;3.47;;;2.37;;
11211;SDS011;5663;50.864;12.096;2023-12-20T15:35:37;6.73;;;2.27;;
11211;SDS011;5663;50.864;12.096;2023-12-20T15:38:12;4.87;;;1.93;;
11211;SDS011;5663;50.864;12.096;2023-12-20T15:40:42;4.00;;;1.77;;
11211;SDS011;5663;50.864;12.096;2023-12-20T15:43:14;3.43;;;1.53;;
11211;SDS011;5663;50.864;12.096;2023-12-20T15:46:01;5.27;;;2.33;;
11211;SDS011;5663;50.864;12.096;2023-12-20T15:48:31;2.67;;;1.50;;
11211;SDS011;5663;50.864;12.096;2023-12-20T15:51:20;4.17;;;1.93;;
11211;SDS011;5663;50.864;12.096;2023-12-20T15:53:52;5.83;;;2.20;;
11211;SDS011;5663;50.864;12.096;2023-12-20T15:59:26;3.73;;;1.50;;
11211;SDS011;5663;50.864;12.096;2023-12-20T16:02:01;5.30;;;2.77;;
11211;SDS011;5663;50.864;12.096;2023-12-20T16:09:53;2.63;;;1.50;;
11211;SDS011;5663;50.864;12.096;2023-12-20T16:12:45;6.17;;;1.90;;
11211;SDS011;5663;50.864;12.096;2023-12-20T16:15:35;5.83;;;1.80;;
11211;SDS011;5663;50.864;12.096;2023-12-20T16:18:21;2.13;;;1.50;;
11211;SDS011;5663;50.864;12.096;2023-12-20T16:21:05;4.53;;;1.70;;
11211;SDS011;5663;50.864;12.096;2023-12-20T16:23:51;1.60;;;1.50;;
11211;SDS011;5663;50.864;12.096;2023-12-20T16:26:25;6.27;;;2.00;;
11211;SDS011;5663;50.864;12.096;2023-12-20T16:29:09;3.87;;;1.47;;
11211;SDS011;5663;50.864;12.096;2023-12-20T16:31:42;5.20;;;1.80;;
11211;SDS011;5663;50.864;12.096;2023-12-20T16:34:12;3.50;;;2.27;;
11211;SDS011;5663;50.864;12.096;2023-12-20T16:36:52;5.63;;;2.17;;
11211;SDS011;5663;50.864;12.096;2023-12-20T16:39:25;3.83;;;1.83;;
11211;SDS011;5663;50.864;12.096;2023-12-20T16:41:53;4.83;;;2.37;;
11211;SDS011;5663;50.864;12.096;2023-12-20T16:44:35;6.23;;;2.43;;
11211;SDS011;5663;50.864;12.096;2023-12-20T16:47:05;4.63;;;2.30;;
11211;SDS011;5663;50.864;12.096;2023-12-20T16:49:33;4.13;;;2.33;;
11211;SDS011;5663;50.864;12.096;2023-12-20T16:52:05;4.73;;;2.00;;
11211;SDS011;5663;50.864;12.096;2023-12-20T16:54:33;4.37;;;1.97;;
11211;SDS011;5663;50.864;12.096;2023-12-20T16:57:13;5.30;;;1.87;;
11211;SDS011;5663;50.864;12.096;2023-12-20T17:00:04;4.43;;;2.00;;
11211;SDS011;5663;50.864;12.096;2023-12-20T17:02:50;3.30;;;1.90;;
11211;SDS011;5663;50.864;12.096;2023-12-20T17:05:18;6.13;;;2.17;;
11211;SDS011;5663;50.864;12.096;2023-12-20T17:08:05;5.00;;;2.10;;
11211;SDS011;5663;50.864;12.096;2023-12-20T17:10:52;3.53;;;2.27;;
11211;SDS011;5663;50.864;12.096;2023-12-20T17:13:36;5.87;;;1.93;;
11211;SDS011;5663;50.864;12.096;2023-12-20T17:16:17;3.70;;;1.70;;
11211;SDS011;5663;50.864;12.096;2023-12-20T17:19:11;2.73;;;1.70;;
11211;SDS011;5663;50.864;12.096;2023-12-20T17:21:53;4.70;;;1.80;;
11211;SDS011;5663;50.864;12.096;2023-12-20T17:24:28;3.37;;;2.30;;
11211;SDS011;5663;50.864;12.096;2023-12-20T17:27:20;6.00;;;2.60;;
11211;SDS011;5663;50.864;12.096;2023-12-20T17:30:05;4.70;;;2.23;;
11211;SDS011;5663;50.864;12.096;2023-12-20T17:32:36;6.33;;;2.27;;
11211;SDS011;5663;50.864;12.096;2023-12-20T17:35:24;5.73;;;2.60;;
11211;SDS011;5663;50.864;12.096;2023-12-20T17:38:04;5.63;;;2.13;;
11211;SDS011;5663;50.864;12.096;2023-12-20T17:40:33;5.10;;;1.97;;
11211;SDS011;5663;50.864;12.096;2023-12-20T17:43:34;3.43;;;1.90;;
11211;SDS011;5663;50.864;12.096;2023-12-20T17:46:26;4.50;;;1.83;;
11211;SDS011;5663;50.864;12.096;2023-12-20T17:49:00;4.83;;;1.73;;
11211;SDS011;5663;50.864;12.096;2023-12-20T17:51:29;4.10;;;2.00;;
11211;SDS011;5663;50.864;12.096;2023-12-20T17:54:07;3.47;;;1.90;;
11211;SDS011;5663;50.864;12.096;2023-12-20T17:56:39;2.97;;;1.90;;
11211;SDS011;5663;50.864;12.096;2023-12-20T17:59:27;5.63;;;2.03;;
11211;SDS011;5663;50.864;12.096;2023-12-20T18:02:21;4.00;;;2.20;;
11211;SDS011;5663;50.864;12.096;2023-12-20T18:05:22;2.83;;;1.93;;
11211;SDS011;5663;50.864;12.096;2023-12-20T18:08:06;4.50;;;2.40;;
11211;SDS011;5663;50.864;12.096;2023-12-20T18:10:34;4.00;;;2.47;;
11211;SDS011;5663;50.864;12.096;2023-12-20T18:13:04;4.60;;;2.37;;
11211;SDS011;5663;50.864;12.096;2023-12-20T18:15:33;4.07;;;2.37;;
11211;SDS011;5663;50.864;12.096;2023-12-20T18:18:14;9.90;;;3.93;;
11211;SDS011;5663;50.864;12.096;2023-12-20T18:20:49;5.60;;;2.77;;
11211;SDS011;5663;50.864;12.096;2023-12-20T18:23:31;6.60;;;2.63;;
11211;SDS011;5663;50.864;12.096;2023-12-20T18:26:02;3.57;;;2.50;;
11211;SDS011;5663;50.864;12.096;2023-12-20T18:28:34;3.90;;;2.50;;
11211;SDS011;5663;50.864;12.096;2023-12-20T18:31:19;5.07;;;2.57;;
11211;SDS011;5663;50.864;12.096;2023-12-20T18:34:03;3.77;;;2.20;;
11211;SDS011;5663;50.864;12.096;2023-12-20T18:36:51;6.00;;;2.47;;
11211;SDS011;5663;50.864;12.096;2023-12-20T18:39:22;5.27;;;2.17;;
11211;SDS011;5663;50.864;12.096;2023-12-20T18:42:03;5.50;;;2.80;;
11211;SDS011;5663;50.864;12.096;2023-12-20T18:47:16;4.27;;;2.43;;
11211;SDS011;5663;50.864;12.096;2023-12-20T18:52:31;3.33;;;2.10;;
11211;SDS011;5663;50.864;12.096;2023-12-20T18:55:36;4.17;;;2.50;;
11211;SDS011;5663;50.864;12.096;2023-12-20T19:03:40;4.30;;;2.03;;
11211;SDS011;5663;50.864;12.096;2023-12-20T19:06:22;2.40;;;1.70;;
11211;SDS011;5663;50.864;12.096;2023-12-20T19:09:14;2.67;;;1.70;;
11211;SDS011;5663;50.864;12.096;2023-12-20T19:11:50;5.03;;;1.63;;
11211;SDS011;5663;50.864;12.096;2023-12-20T19:14:38;2.23;;;1.60;;
11211;SDS011;5663;50.864;12.096;2023-12-20T19:17:28;2.63;;;1.70;;
11211;SDS011;5663;50.864;12.096;2023-12-20T19:20:09;2.70;;;1.53;;
11211;SDS011;5663;50.864;12.096;2023-12-20T19:22:42;1.53;;;1.37;;
11211;SDS011;5663;50.864;12.096;2023-12-20T19:25:14;2.67;;;1.70;;
11211;SDS011;5663;50.864;12.096;2023-12-20T19:27:57;2.57;;;1.47;;
11211;SDS011;5663;50.864;12.096;2023-12-20T19:30:26;2.30;;;1.60;;
11211;SDS011;5663;50.864;12.096;2023-12-20T19:33:08;1.43;;;1.13;;
11211;SDS011;5663;50.864;12.096;2023-12-20T19:35:56;1.70;;;1.20;;
11211;SDS011;5663;50.864;12.096;2023-12-20T19:38:24;1.83;;;1.40;;
11211;SDS011;5663;50.864;12.096;2023-12-20T19:40:56;1.47;;;1.30;;
11211;SDS011;5663;50.864;12.096;2023-12-20T19:43:40;1.10;;;1.00;;
11211;SDS011;5663;50.864;12.096;2023-12-20T19:46:21;1.33;;;1.00;;
11211;SDS011;5663;50.864;12.096;2023-12-20T19:48:52;1.40;;;1.13;;
11211;SDS011;5663;50.864;12.096;2023-12-20T19:51:41;1.23;;;1.10;;